sensor_id;sensor_type;location;lat;lon;timestamp;P1;durP1;ratioP1;P2;durP2;ratioP2
70733;SDS011;58320;48.804;9.252;2023-09-30T00:01:58;6.65;;;2.30;;
70733;SDS011;58320;48.804;9.252;2023-09-30T00:04:24;6.85;;;2.10;;
70733;SDS011;58320;48.804;9.252;2023-09-30T00:06:50;6.70;;;2.43;;
70733;SDS011;58320;48.804;9.252;2023-09-30T00:09:15;7.00;;;2.25;;
70733;SDS011;58320;48.804;9.252;2023-09-30T00:11:42;6.55;;;2.45;;
70733;SDS011;58320;48.804;9.252;2023-09-30T00:14:07;6.30;;;2.80;;
70733;SDS011;58320;48.804;9.252;2023-09-30T00:16:33;5.43;;;2.00;;
70733;SDS011;58320;48.804;9.252;2023-09-30T00:18:59;5.90;;;2.15;;
70733;SDS011;58320;48.804;9.252;2023-09-30T00:21:27;5.18;;;2.20;;
70733;SDS011;58320;48.804;9.252;2023-09-30T00:23:52;4.87;;;1.83;;
70733;SDS011;58320;48.804;9.252;2023-09-30T00:26:18;4.90;;;2.00;;
70733;SDS011;58320;48.804;9.252;2023-09-30T00:28:44;4.10;;;1.87;;
70733;SDS011;58320;48.804;9.252;2023-09-30T00:31:10;7.40;;;2.05;;
70733;SDS011;58320;48.804;9.252;2023-09-30T00:33:35;5.47;;;1.77;;
70733;SDS011;58320;48.804;9.252;2023-09-30T00:36:08;4.97;;;2.05;;
70733;SDS011;58320;48.804;9.252;2023-09-30T00:38:38;7.03;;;2.17;;
70733;SDS011;58320;48.804;9.252;2023-09-30T00:41:05;5.60;;;1.80;;
70733;SDS011;58320;48.804;9.252;2023-09-30T00:43:32;5.40;;;1.83;;
70733;SDS011;58320;48.804;9.252;2023-09-30T00:48:46;5.80;;;2.08;;
70733;SDS011;58320;48.804;9.252;2023-09-30T00:51:12;4.40;;;1.70;;
70733;SDS011;58320;48.804;9.252;2023-09-30T00:53:38;5.17;;;2.10;;
70733;SDS011;58320;48.804;9.252;2023-09-30T00:56:03;4.30;;;1.80;;
70733;SDS011;58320;48.804;9.252;2023-09-30T00:58:30;5.45;;;1.92;;
70733;SDS011;58320;48.804;9.252;2023-09-30T01:00:58;6.55;;;2.22;;
70733;SDS011;58320;48.804;9.252;2023-09-30T01:03:25;4.93;;;1.80;;
70733;SDS011;58320;48.804;9.252;2023-09-30T01:05:51;3.90;;;1.80;;
70733;SDS011;58320;48.804;9.252;2023-09-30T01:08:17;5.65;;;1.95;;
70733;SDS011;58320;48.804;9.252;2023-09-30T01:10:44;5.63;;;1.85;;
70733;SDS011;58320;48.804;9.252;2023-09-30T01:13:10;4.20;;;2.08;;
70733;SDS011;58320;48.804;9.252;2023-09-30T01:15:36;5.27;;;2.40;;
70733;SDS011;58320;48.804;9.252;2023-09-30T01:18:02;5.32;;;2.30;;
70733;SDS011;58320;48.804;9.252;2023-09-30T01:20:29;6.57;;;2.30;;
70733;SDS011;58320;48.804;9.252;2023-09-30T01:22:56;6.97;;;2.03;;
70733;SDS011;58320;48.804;9.252;2023-09-30T01:25:23;4.80;;;2.38;;
70733;SDS011;58320;48.804;9.252;2023-09-30T01:27:49;7.20;;;2.15;;
70733;SDS011;58320;48.804;9.252;2023-09-30T01:30:16;5.15;;;2.58;;
70733;SDS011;58320;48.804;9.252;2023-09-30T01:32:43;5.95;;;2.40;;
70733;SDS011;58320;48.804;9.252;2023-09-30T01:35:09;7.07;;;2.50;;
70733;SDS011;58320;48.804;9.252;2023-09-30T01:37:35;5.28;;;2.35;;
70733;SDS011;58320;48.804;9.252;2023-09-30T01:40:01;5.63;;;2.13;;
70733;SDS011;58320;48.804;9.252;2023-09-30T01:42:36;5.85;;;2.30;;
70733;SDS011;58320;48.804;9.252;2023-09-30T01:45:03;6.47;;;2.60;;
70733;SDS011;58320;48.804;9.252;2023-09-30T01:47:29;5.28;;;2.40;;
70733;SDS011;58320;48.804;9.252;2023-09-30T01:49:55;4.70;;;2.28;;
70733;SDS011;58320;48.804;9.252;2023-09-30T01:52:21;5.93;;;2.20;;
70733;SDS011;58320;48.804;9.252;2023-09-30T01:54:47;5.57;;;2.30;;
70733;SDS011;58320;48.804;9.252;2023-09-30T01:57:12;5.20;;;2.40;;
70733;SDS011;58320;48.804;9.252;2023-09-30T01:59:38;5.88;;;2.35;;
70733;SDS011;58320;48.804;9.252;2023-09-30T02:02:04;7.10;;;2.63;;
70733;SDS011;58320;48.804;9.252;2023-09-30T02:04:30;5.32;;;2.40;;
70733;SDS011;58320;48.804;9.252;2023-09-30T02:06:56;4.72;;;2.88;;
70733;SDS011;58320;48.804;9.252;2023-09-30T02:09:21;6.33;;;2.87;;
70733;SDS011;58320;48.804;9.252;2023-09-30T02:11:47;5.80;;;2.67;;
70733;SDS011;58320;48.804;9.252;2023-09-30T02:14:13;6.00;;;2.80;;
70733;SDS011;58320;48.804;9.252;2023-09-30T02:16:39;6.47;;;2.83;;
70733;SDS011;58320;48.804;9.252;2023-09-30T02:19:05;4.57;;;2.50;;
70733;SDS011;58320;48.804;9.252;2023-09-30T02:21:31;6.05;;;2.78;;
70733;SDS011;58320;48.804;9.252;2023-09-30T02:23:57;5.23;;;2.97;;
70733;SDS011;58320;48.804;9.252;2023-09-30T02:26:23;7.43;;;3.13;;
70733;SDS011;58320;48.804;9.252;2023-09-30T02:28:50;5.47;;;2.50;;
70733;SDS011;58320;48.804;9.252;2023-09-30T02:31:17;6.27;;;3.20;;
70733;SDS011;58320;48.804;9.252;2023-09-30T02:33:44;6.93;;;2.75;;
70733;SDS011;58320;48.804;9.252;2023-09-30T02:36:09;5.40;;;2.78;;
70733;SDS011;58320;48.804;9.252;2023-09-30T02:38:37;7.65;;;3.20;;
70733;SDS011;58320;48.804;9.252;2023-09-30T02:41:03;6.30;;;2.90;;
70733;SDS011;58320;48.804;9.252;2023-09-30T02:43:29;6.82;;;3.17;;
70733;SDS011;58320;48.804;9.252;2023-09-30T02:45:55;5.90;;;2.97;;
70733;SDS011;58320;48.804;9.252;2023-09-30T02:48:20;5.53;;;3.03;;
70733;SDS011;58320;48.804;9.252;2023-09-30T02:50:46;7.55;;;3.15;;
70733;SDS011;58320;48.804;9.252;2023-09-30T02:53:12;6.30;;;3.10;;
70733;SDS011;58320;48.804;9.252;2023-09-30T02:55:39;6.72;;;2.85;;
70733;SDS011;58320;48.804;9.252;2023-09-30T02:58:06;5.60;;;2.65;;
70733;SDS011;58320;48.804;9.252;2023-09-30T03:00:35;7.78;;;3.40;;
70733;SDS011;58320;48.804;9.252;2023-09-30T03:03:03;9.18;;;3.72;;
70733;SDS011;58320;48.804;9.252;2023-09-30T03:05:29;9.40;;;3.57;;
70733;SDS011;58320;48.804;9.252;2023-09-30T03:07:58;7.05;;;3.40;;
70733;SDS011;58320;48.804;9.252;2023-09-30T03:10:26;8.02;;;3.22;;
70733;SDS011;58320;48.804;9.252;2023-09-30T03:12:55;5.85;;;3.03;;
70733;SDS011;58320;48.804;9.252;2023-09-30T03:15:26;7.32;;;3.60;;
70733;SDS011;58320;48.804;9.252;2023-09-30T03:17:55;6.70;;;3.40;;
70733;SDS011;58320;48.804;9.252;2023-09-30T03:20:22;8.50;;;3.85;;
70733;SDS011;58320;48.804;9.252;2023-09-30T03:22:50;6.20;;;3.30;;
70733;SDS011;58320;48.804;9.252;2023-09-30T03:25:17;9.55;;;3.70;;
70733;SDS011;58320;48.804;9.252;2023-09-30T03:27:46;7.57;;;3.45;;
70733;SDS011;58320;48.804;9.252;2023-09-30T03:30:13;10.83;;;4.00;;
70733;SDS011;58320;48.804;9.252;2023-09-30T03:32:40;6.90;;;3.72;;
70733;SDS011;58320;48.804;9.252;2023-09-30T03:35:10;8.20;;;3.47;;
70733;SDS011;58320;48.804;9.252;2023-09-30T03:37:41;6.53;;;3.50;;
70733;SDS011;58320;48.804;9.252;2023-09-30T03:40:12;8.35;;;3.03;;
70733;SDS011;58320;48.804;9.252;2023-09-30T03:42:40;7.97;;;3.80;;
70733;SDS011;58320;48.804;9.252;2023-09-30T03:45:09;7.38;;;3.70;;
70733;SDS011;58320;48.804;9.252;2023-09-30T03:47:36;7.30;;;3.47;;
70733;SDS011;58320;48.804;9.252;2023-09-30T03:50:03;8.75;;;3.53;;
70733;SDS011;58320;48.804;9.252;2023-09-30T03:52:30;8.13;;;3.20;;
70733;SDS011;58320;48.804;9.252;2023-09-30T03:55:02;7.77;;;3.43;;
70733;SDS011;58320;48.804;9.252;2023-09-30T03:57:31;6.43;;;2.85;;
70733;SDS011;58320;48.804;9.252;2023-09-30T03:59:59;7.70;;;3.60;;
70733;SDS011;58320;48.804;9.252;2023-09-30T04:02:25;7.18;;;3.15;;
70733;SDS011;58320;48.804;9.252;2023-09-30T04:04:51;10.43;;;3.47;;
70733;SDS011;58320;48.804;9.252;2023-09-30T04:07:19;7.30;;;2.90;;
70733;SDS011;58320;48.804;9.252;2023-09-30T04:09:46;7.05;;;3.50;;
70733;SDS011;58320;48.804;9.252;2023-09-30T04:12:11;8.82;;;3.75;;
70733;SDS011;58320;48.804;9.252;2023-09-30T04:14:37;7.83;;;3.20;;
70733;SDS011;58320;48.804;9.252;2023-09-30T04:17:04;10.40;;;3.42;;
70733;SDS011;58320;48.804;9.252;2023-09-30T04:19:30;8.63;;;3.50;;
70733;SDS011;58320;48.804;9.252;2023-09-30T04:21:56;6.27;;;3.40;;
70733;SDS011;58320;48.804;9.252;2023-09-30T04:24:22;8.18;;;3.42;;
70733;SDS011;58320;48.804;9.252;2023-09-30T04:26:47;7.20;;;3.53;;
70733;SDS011;58320;48.804;9.252;2023-09-30T04:29:15;8.60;;;3.40;;
70733;SDS011;58320;48.804;9.252;2023-09-30T04:31:41;8.50;;;3.53;;
70733;SDS011;58320;48.804;9.252;2023-09-30T04:34:07;7.32;;;3.33;;
70733;SDS011;58320;48.804;9.252;2023-09-30T04:36:33;7.43;;;3.53;;
70733;SDS011;58320;48.804;9.252;2023-09-30T04:39:00;8.32;;;3.50;;
70733;SDS011;58320;48.804;9.252;2023-09-30T04:41:26;8.55;;;3.33;;
70733;SDS011;58320;48.804;9.252;2023-09-30T04:43:52;6.53;;;3.27;;
70733;SDS011;58320;48.804;9.252;2023-09-30T04:46:17;6.30;;;3.30;;
70733;SDS011;58320;48.804;9.252;2023-09-30T04:48:45;7.28;;;3.45;;
70733;SDS011;58320;48.804;9.252;2023-09-30T04:51:13;6.97;;;3.28;;
70733;SDS011;58320;48.804;9.252;2023-09-30T04:53:41;8.30;;;3.50;;
70733;SDS011;58320;48.804;9.252;2023-09-30T04:56:07;5.47;;;3.07;;
70733;SDS011;58320;48.804;9.252;2023-09-30T04:58:33;7.45;;;3.35;;
70733;SDS011;58320;48.804;9.252;2023-09-30T05:00:59;8.65;;;3.42;;
70733;SDS011;58320;48.804;9.252;2023-09-30T05:03:24;6.83;;;3.40;;
70733;SDS011;58320;48.804;9.252;2023-09-30T05:05:51;9.73;;;3.67;;
70733;SDS011;58320;48.804;9.252;2023-09-30T05:08:22;8.33;;;3.40;;
70733;SDS011;58320;48.804;9.252;2023-09-30T05:10:49;7.18;;;3.67;;
70733;SDS011;58320;48.804;9.252;2023-09-30T05:13:15;7.00;;;3.63;;
70733;SDS011;58320;48.804;9.252;2023-09-30T05:15:41;7.28;;;3.70;;
70733;SDS011;58320;48.804;9.252;2023-09-30T05:18:07;6.47;;;3.07;;
70733;SDS011;58320;48.804;9.252;2023-09-30T05:20:34;8.05;;;3.88;;
70733;SDS011;58320;48.804;9.252;2023-09-30T05:23:01;7.75;;;3.45;;
70733;SDS011;58320;48.804;9.252;2023-09-30T05:25:28;5.63;;;3.20;;
70733;SDS011;58320;48.804;9.252;2023-09-30T05:27:54;6.45;;;3.50;;
70733;SDS011;58320;48.804;9.252;2023-09-30T05:30:19;6.20;;;3.30;;
70733;SDS011;58320;48.804;9.252;2023-09-30T05:32:46;8.15;;;3.80;;
70733;SDS011;58320;48.804;9.252;2023-09-30T05:35:12;5.90;;;3.40;;
70733;SDS011;58320;48.804;9.252;2023-09-30T05:37:41;7.27;;;3.80;;
70733;SDS011;58320;48.804;9.252;2023-09-30T05:40:08;6.95;;;3.60;;
70733;SDS011;58320;48.804;9.252;2023-09-30T05:42:55;8.15;;;3.95;;
70733;SDS011;58320;48.804;9.252;2023-09-30T05:45:30;7.30;;;3.22;;
70733;SDS011;58320;48.804;9.252;2023-09-30T05:48:03;9.15;;;3.72;;
70733;SDS011;58320;48.804;9.252;2023-09-30T05:50:33;7.93;;;3.80;;
70733;SDS011;58320;48.804;9.252;2023-09-30T05:53:01;9.85;;;3.85;;
70733;SDS011;58320;48.804;9.252;2023-09-30T05:55:29;7.30;;;3.90;;
70733;SDS011;58320;48.804;9.252;2023-09-30T05:57:55;8.23;;;3.75;;
70733;SDS011;58320;48.804;9.252;2023-09-30T06:00:21;7.00;;;3.67;;
70733;SDS011;58320;48.804;9.252;2023-09-30T06:02:48;8.88;;;3.70;;
70733;SDS011;58320;48.804;9.252;2023-09-30T06:05:16;6.72;;;3.30;;
70733;SDS011;58320;48.804;9.252;2023-09-30T06:07:44;6.53;;;3.00;;
70733;SDS011;58320;48.804;9.252;2023-09-30T06:10:11;6.10;;;3.65;;
70733;SDS011;58320;48.804;9.252;2023-09-30T06:12:40;7.53;;;3.47;;
70733;SDS011;58320;48.804;9.252;2023-09-30T06:15:06;9.00;;;3.75;;
70733;SDS011;58320;48.804;9.252;2023-09-30T06:17:33;8.55;;;3.38;;
70733;SDS011;58320;48.804;9.252;2023-09-30T06:19:59;7.38;;;3.60;;
70733;SDS011;58320;48.804;9.252;2023-09-30T06:22:33;9.73;;;3.65;;
70733;SDS011;58320;48.804;9.252;2023-09-30T06:24:59;6.27;;;3.60;;
70733;SDS011;58320;48.804;9.252;2023-09-30T06:27:25;6.47;;;3.60;;
70733;SDS011;58320;48.804;9.252;2023-09-30T06:29:51;7.72;;;3.40;;
70733;SDS011;58320;48.804;9.252;2023-09-30T06:32:16;6.57;;;3.17;;
70733;SDS011;58320;48.804;9.252;2023-09-30T06:34:42;7.95;;;3.20;;
70733;SDS011;58320;48.804;9.252;2023-09-30T06:37:08;7.30;;;3.50;;
70733;SDS011;58320;48.804;9.252;2023-09-30T06:39:34;8.00;;;3.63;;
70733;SDS011;58320;48.804;9.252;2023-09-30T06:41:59;7.33;;;3.20;;
70733;SDS011;58320;48.804;9.252;2023-09-30T06:44:25;8.77;;;3.53;;
70733;SDS011;58320;48.804;9.252;2023-09-30T06:46:53;6.07;;;3.50;;
70733;SDS011;58320;48.804;9.252;2023-09-30T06:49:20;7.87;;;3.77;;
70733;SDS011;58320;48.804;9.252;2023-09-30T06:51:45;8.48;;;3.22;;
70733;SDS011;58320;48.804;9.252;2023-09-30T06:54:12;8.18;;;3.45;;
70733;SDS011;58320;48.804;9.252;2023-09-30T06:56:38;7.00;;;3.22;;
70733;SDS011;58320;48.804;9.252;2023-09-30T06:59:04;8.27;;;3.63;;
70733;SDS011;58320;48.804;9.252;2023-09-30T07:01:31;6.90;;;3.40;;
70733;SDS011;58320;48.804;9.252;2023-09-30T07:03:57;7.20;;;3.38;;
70733;SDS011;58320;48.804;9.252;2023-09-30T07:06:25;8.13;;;3.53;;
70733;SDS011;58320;48.804;9.252;2023-09-30T07:08:51;9.05;;;3.42;;
70733;SDS011;58320;48.804;9.252;2023-09-30T07:11:27;8.88;;;3.75;;
70733;SDS011;58320;48.804;9.252;2023-09-30T07:13:54;9.55;;;3.95;;
70733;SDS011;58320;48.804;9.252;2023-09-30T07:16:20;8.63;;;3.72;;
70733;SDS011;58320;48.804;9.252;2023-09-30T07:18:46;7.20;;;3.47;;
70733;SDS011;58320;48.804;9.252;2023-09-30T07:21:12;6.78;;;3.00;;
70733;SDS011;58320;48.804;9.252;2023-09-30T07:23:38;7.60;;;3.27;;
70733;SDS011;58320;48.804;9.252;2023-09-30T07:26:05;6.95;;;3.30;;
70733;SDS011;58320;48.804;9.252;2023-09-30T07:28:31;8.10;;;3.47;;
70733;SDS011;58320;48.804;9.252;2023-09-30T07:30:58;10.57;;;3.97;;
70733;SDS011;58320;48.804;9.252;2023-09-30T07:33:24;7.30;;;3.25;;
70733;SDS011;58320;48.804;9.252;2023-09-30T07:35:50;7.50;;;3.60;;
70733;SDS011;58320;48.804;9.252;2023-09-30T07:38:16;9.63;;;3.77;;
70733;SDS011;58320;48.804;9.252;2023-09-30T07:40:41;8.32;;;3.50;;
70733;SDS011;58320;48.804;9.252;2023-09-30T07:43:08;7.90;;;3.47;;
70733;SDS011;58320;48.804;9.252;2023-09-30T07:45:33;7.33;;;3.70;;
70733;SDS011;58320;48.804;9.252;2023-09-30T07:47:59;8.65;;;3.88;;
70733;SDS011;58320;48.804;9.252;2023-09-30T07:50:29;7.13;;;3.38;;
70733;SDS011;58320;48.804;9.252;2023-09-30T07:52:55;9.38;;;3.55;;
70733;SDS011;58320;48.804;9.252;2023-09-30T07:55:23;9.25;;;3.55;;
70733;SDS011;58320;48.804;9.252;2023-09-30T07:57:49;8.13;;;3.47;;
70733;SDS011;58320;48.804;9.252;2023-09-30T08:00:15;10.07;;;3.80;;
70733;SDS011;58320;48.804;9.252;2023-09-30T08:02:42;7.67;;;3.70;;
70733;SDS011;58320;48.804;9.252;2023-09-30T08:05:09;7.97;;;3.97;;
70733;SDS011;58320;48.804;9.252;2023-09-30T08:07:35;10.20;;;3.78;;
70733;SDS011;58320;48.804;9.252;2023-09-30T08:10:02;7.90;;;3.20;;
70733;SDS011;58320;48.804;9.252;2023-09-30T08:12:32;10.80;;;4.07;;
70733;SDS011;58320;48.804;9.252;2023-09-30T08:14:58;9.37;;;3.90;;
70733;SDS011;58320;48.804;9.252;2023-09-30T08:17:23;7.03;;;3.78;;
70733;SDS011;58320;48.804;9.252;2023-09-30T08:19:49;8.93;;;4.30;;
70733;SDS011;58320;48.804;9.252;2023-09-30T08:22:15;7.77;;;3.80;;
70733;SDS011;58320;48.804;9.252;2023-09-30T08:24:41;11.55;;;4.43;;
70733;SDS011;58320;48.804;9.252;2023-09-30T08:27:06;9.27;;;5.47;;
70733;SDS011;58320;48.804;9.252;2023-09-30T08:29:33;9.13;;;4.47;;
70733;SDS011;58320;48.804;9.252;2023-09-30T08:32:02;9.05;;;4.82;;
70733;SDS011;58320;48.804;9.252;2023-09-30T08:34:28;11.43;;;5.43;;
70733;SDS011;58320;48.804;9.252;2023-09-30T08:36:55;9.80;;;4.50;;
70733;SDS011;58320;48.804;9.252;2023-09-30T08:39:20;8.80;;;4.25;;
70733;SDS011;58320;48.804;9.252;2023-09-30T08:41:46;8.52;;;3.97;;
70733;SDS011;58320;48.804;9.252;2023-09-30T08:44:12;8.23;;;3.67;;
70733;SDS011;58320;48.804;9.252;2023-09-30T08:46:38;7.13;;;3.72;;
70733;SDS011;58320;48.804;9.252;2023-09-30T08:49:05;9.43;;;4.50;;
70733;SDS011;58320;48.804;9.252;2023-09-30T08:51:32;10.83;;;4.43;;
70733;SDS011;58320;48.804;9.252;2023-09-30T08:53:58;8.35;;;4.13;;
70733;SDS011;58320;48.804;9.252;2023-09-30T08:56:27;8.50;;;4.20;;
70733;SDS011;58320;48.804;9.252;2023-09-30T08:58:55;7.82;;;3.95;;
70733;SDS011;58320;48.804;9.252;2023-09-30T09:01:26;10.63;;;4.53;;
70733;SDS011;58320;48.804;9.252;2023-09-30T09:03:53;7.83;;;3.93;;
70733;SDS011;58320;48.804;9.252;2023-09-30T09:06:20;8.85;;;4.75;;
70733;SDS011;58320;48.804;9.252;2023-09-30T09:08:50;7.72;;;4.35;;
70733;SDS011;58320;48.804;9.252;2023-09-30T09:11:16;7.57;;;4.40;;
70733;SDS011;58320;48.804;9.252;2023-09-30T09:13:54;9.70;;;4.72;;
70733;SDS011;58320;48.804;9.252;2023-09-30T09:16:21;10.53;;;4.70;;
70733;SDS011;58320;48.804;9.252;2023-09-30T09:18:48;9.60;;;4.78;;
70733;SDS011;58320;48.804;9.252;2023-09-30T09:21:16;8.00;;;4.30;;
70733;SDS011;58320;48.804;9.252;2023-09-30T09:23:46;9.45;;;4.70;;
70733;SDS011;58320;48.804;9.252;2023-09-30T09:26:23;9.07;;;4.55;;
70733;SDS011;58320;48.804;9.252;2023-09-30T09:28:56;10.53;;;4.77;;
70733;SDS011;58320;48.804;9.252;2023-09-30T09:31:27;8.40;;;4.18;;
70733;SDS011;58320;48.804;9.252;2023-09-30T09:33:55;8.98;;;4.25;;
70733;SDS011;58320;48.804;9.252;2023-09-30T09:36:22;6.30;;;3.70;;
70733;SDS011;58320;48.804;9.252;2023-09-30T09:39:11;7.30;;;3.55;;
70733;SDS011;58320;48.804;9.252;2023-09-30T09:41:51;8.00;;;4.43;;
70733;SDS011;58320;48.804;9.252;2023-09-30T09:44:21;10.23;;;4.43;;
70733;SDS011;58320;48.804;9.252;2023-09-30T09:46:48;13.80;;;4.28;;
70733;SDS011;58320;48.804;9.252;2023-09-30T09:49:18;7.40;;;3.50;;
70733;SDS011;58320;48.804;9.252;2023-09-30T09:51:45;9.80;;;3.72;;
70733;SDS011;58320;48.804;9.252;2023-09-30T09:54:13;6.33;;;3.70;;
70733;SDS011;58320;48.804;9.252;2023-09-30T09:56:41;9.45;;;4.30;;
70733;SDS011;58320;48.804;9.252;2023-09-30T09:59:13;7.10;;;3.80;;
70733;SDS011;58320;48.804;9.252;2023-09-30T10:01:40;6.88;;;3.33;;
70733;SDS011;58320;48.804;9.252;2023-09-30T10:04:07;8.98;;;4.53;;
70733;SDS011;58320;48.804;9.252;2023-09-30T10:06:36;7.37;;;3.63;;
70733;SDS011;58320;48.804;9.252;2023-09-30T10:09:03;8.82;;;3.60;;
70733;SDS011;58320;48.804;9.252;2023-09-30T10:11:34;7.38;;;3.22;;
70733;SDS011;58320;48.804;9.252;2023-09-30T10:14:01;7.03;;;3.30;;
70733;SDS011;58320;48.804;9.252;2023-09-30T10:19:11;7.07;;;3.90;;
70733;SDS011;58320;48.804;9.252;2023-09-30T10:21:38;7.68;;;3.58;;
70733;SDS011;58320;48.804;9.252;2023-09-30T10:29:56;10.63;;;4.15;;
70733;SDS011;58320;48.804;9.252;2023-09-30T10:35:18;6.65;;;3.45;;
70733;SDS011;58320;48.804;9.252;2023-09-30T10:37:47;7.95;;;3.38;;
70733;SDS011;58320;48.804;9.252;2023-09-30T10:40:29;6.82;;;3.60;;
70733;SDS011;58320;48.804;9.252;2023-09-30T10:42:56;7.32;;;3.40;;
70733;SDS011;58320;48.804;9.252;2023-09-30T10:45:41;7.90;;;3.67;;
70733;SDS011;58320;48.804;9.252;2023-09-30T10:50:51;7.28;;;3.30;;
70733;SDS011;58320;48.804;9.252;2023-09-30T10:53:19;7.68;;;3.47;;
70733;SDS011;58320;48.804;9.252;2023-09-30T10:55:45;8.18;;;3.40;;
70733;SDS011;58320;48.804;9.252;2023-09-30T10:58:12;8.03;;;3.20;;
70733;SDS011;58320;48.804;9.252;2023-09-30T11:00:38;7.80;;;2.97;;
70733;SDS011;58320;48.804;9.252;2023-09-30T11:03:06;7.22;;;3.63;;
70733;SDS011;58320;48.804;9.252;2023-09-30T11:05:32;8.75;;;3.55;;
70733;SDS011;58320;48.804;9.252;2023-09-30T11:08:00;8.20;;;3.50;;
70733;SDS011;58320;48.804;9.252;2023-09-30T11:10:28;7.85;;;3.40;;
70733;SDS011;58320;48.804;9.252;2023-09-30T11:12:55;8.05;;;3.53;;
70733;SDS011;58320;48.804;9.252;2023-09-30T11:15:22;10.05;;;3.80;;
70733;SDS011;58320;48.804;9.252;2023-09-30T11:17:48;7.90;;;3.37;;
70733;SDS011;58320;48.804;9.252;2023-09-30T11:20:17;6.63;;;3.03;;
70733;SDS011;58320;48.804;9.252;2023-09-30T11:22:43;8.35;;;3.47;;
70733;SDS011;58320;48.804;9.252;2023-09-30T11:25:17;6.75;;;3.35;;
70733;SDS011;58320;48.804;9.252;2023-09-30T11:27:44;7.97;;;3.47;;
70733;SDS011;58320;48.804;9.252;2023-09-30T11:30:12;8.67;;;3.73;;
70733;SDS011;58320;48.804;9.252;2023-09-30T11:32:38;8.18;;;3.70;;
70733;SDS011;58320;48.804;9.252;2023-09-30T11:35:25;7.90;;;3.55;;
70733;SDS011;58320;48.804;9.252;2023-09-30T11:37:50;7.10;;;3.35;;
70733;SDS011;58320;48.804;9.252;2023-09-30T11:40:17;7.73;;;3.47;;
70733;SDS011;58320;48.804;9.252;2023-09-30T11:45:36;7.50;;;3.40;;
70733;SDS011;58320;48.804;9.252;2023-09-30T11:48:02;7.50;;;3.50;;
70733;SDS011;58320;48.804;9.252;2023-09-30T11:50:48;7.90;;;3.58;;
70733;SDS011;58320;48.804;9.252;2023-09-30T11:53:16;8.93;;;3.33;;
70733;SDS011;58320;48.804;9.252;2023-09-30T11:55:43;7.30;;;3.50;;
70733;SDS011;58320;48.804;9.252;2023-09-30T11:58:08;7.60;;;3.42;;
70733;SDS011;58320;48.804;9.252;2023-09-30T12:00:40;8.38;;;3.90;;
70733;SDS011;58320;48.804;9.252;2023-09-30T12:03:06;8.55;;;3.97;;
70733;SDS011;58320;48.804;9.252;2023-09-30T12:05:32;9.17;;;4.07;;
70733;SDS011;58320;48.804;9.252;2023-09-30T12:07:58;8.23;;;4.00;;
70733;SDS011;58320;48.804;9.252;2023-09-30T12:10:24;7.23;;;3.47;;
70733;SDS011;58320;48.804;9.252;2023-09-30T12:12:50;9.40;;;3.38;;
70733;SDS011;58320;48.804;9.252;2023-09-30T12:15:16;9.98;;;3.78;;
70733;SDS011;58320;48.804;9.252;2023-09-30T12:17:42;8.63;;;3.40;;
70733;SDS011;58320;48.804;9.252;2023-09-30T12:20:08;9.10;;;3.60;;
70733;SDS011;58320;48.804;9.252;2023-09-30T12:22:34;9.25;;;3.60;;
70733;SDS011;58320;48.804;9.252;2023-09-30T12:25:02;8.17;;;3.40;;
70733;SDS011;58320;48.804;9.252;2023-09-30T12:27:28;9.30;;;3.92;;
70733;SDS011;58320;48.804;9.252;2023-09-30T12:29:54;8.75;;;3.55;;
70733;SDS011;58320;48.804;9.252;2023-09-30T12:32:20;9.53;;;3.53;;
70733;SDS011;58320;48.804;9.252;2023-09-30T12:34:45;7.23;;;3.67;;
70733;SDS011;58320;48.804;9.252;2023-09-30T12:37:11;8.98;;;4.10;;
70733;SDS011;58320;48.804;9.252;2023-09-30T12:39:38;7.80;;;3.40;;
70733;SDS011;58320;48.804;9.252;2023-09-30T12:42:04;7.93;;;3.67;;
70733;SDS011;58320;48.804;9.252;2023-09-30T12:44:33;9.18;;;3.88;;
70733;SDS011;58320;48.804;9.252;2023-09-30T12:46:59;8.53;;;3.67;;
70733;SDS011;58320;48.804;9.252;2023-09-30T12:49:25;7.72;;;3.28;;
70733;SDS011;58320;48.804;9.252;2023-09-30T12:51:51;9.40;;;3.57;;
70733;SDS011;58320;48.804;9.252;2023-09-30T12:54:16;9.27;;;3.75;;
70733;SDS011;58320;48.804;9.252;2023-09-30T12:56:43;8.45;;;3.80;;
70733;SDS011;58320;48.804;9.252;2023-09-30T12:59:09;9.23;;;3.53;;
70733;SDS011;58320;48.804;9.252;2023-09-30T13:01:35;7.90;;;3.70;;
70733;SDS011;58320;48.804;9.252;2023-09-30T13:04:01;9.40;;;3.63;;
70733;SDS011;58320;48.804;9.252;2023-09-30T13:06:27;8.73;;;3.50;;
70733;SDS011;58320;48.804;9.252;2023-09-30T13:08:54;8.97;;;3.77;;
70733;SDS011;58320;48.804;9.252;2023-09-30T13:11:19;8.70;;;4.03;;
70733;SDS011;58320;48.804;9.252;2023-09-30T13:13:45;8.25;;;3.80;;
70733;SDS011;58320;48.804;9.252;2023-09-30T13:16:11;8.30;;;3.57;;
70733;SDS011;58320;48.804;9.252;2023-09-30T13:18:37;8.43;;;3.65;;
70733;SDS011;58320;48.804;9.252;2023-09-30T13:21:03;9.48;;;3.72;;
70733;SDS011;58320;48.804;9.252;2023-09-30T13:23:30;7.63;;;3.10;;
70733;SDS011;58320;48.804;9.252;2023-09-30T13:25:57;9.43;;;3.40;;
70733;SDS011;58320;48.804;9.252;2023-09-30T13:28:22;9.40;;;3.47;;
70733;SDS011;58320;48.804;9.252;2023-09-30T13:30:48;8.87;;;4.13;;
70733;SDS011;58320;48.804;9.252;2023-09-30T13:33:14;9.53;;;3.43;;
70733;SDS011;58320;48.804;9.252;2023-09-30T13:35:40;8.05;;;3.20;;
70733;SDS011;58320;48.804;9.252;2023-09-30T13:38:05;8.27;;;3.60;;
70733;SDS011;58320;48.804;9.252;2023-09-30T13:40:31;7.88;;;3.90;;
70733;SDS011;58320;48.804;9.252;2023-09-30T13:42:57;8.30;;;3.97;;
70733;SDS011;58320;48.804;9.252;2023-09-30T13:45:23;8.90;;;3.70;;
70733;SDS011;58320;48.804;9.252;2023-09-30T13:47:49;8.27;;;3.63;;
70733;SDS011;58320;48.804;9.252;2023-09-30T13:50:15;8.43;;;3.70;;
70733;SDS011;58320;48.804;9.252;2023-09-30T13:52:41;8.37;;;3.73;;
70733;SDS011;58320;48.804;9.252;2023-09-30T13:55:07;8.45;;;3.72;;
70733;SDS011;58320;48.804;9.252;2023-09-30T13:57:33;8.70;;;4.20;;
70733;SDS011;58320;48.804;9.252;2023-09-30T14:00:00;7.93;;;3.83;;
70733;SDS011;58320;48.804;9.252;2023-09-30T14:02:28;9.57;;;3.80;;
70733;SDS011;58320;48.804;9.252;2023-09-30T14:04:54;9.98;;;3.97;;
70733;SDS011;58320;48.804;9.252;2023-09-30T14:07:20;8.10;;;3.92;;
70733;SDS011;58320;48.804;9.252;2023-09-30T14:09:46;7.13;;;3.63;;
70733;SDS011;58320;48.804;9.252;2023-09-30T14:12:12;8.70;;;3.67;;
70733;SDS011;58320;48.804;9.252;2023-09-30T14:14:38;8.38;;;3.75;;
70733;SDS011;58320;48.804;9.252;2023-09-30T14:17:04;8.70;;;4.10;;
70733;SDS011;58320;48.804;9.252;2023-09-30T14:19:34;10.77;;;4.33;;
70733;SDS011;58320;48.804;9.252;2023-09-30T14:22:01;8.30;;;3.85;;
70733;SDS011;58320;48.804;9.252;2023-09-30T14:24:27;8.43;;;3.50;;
70733;SDS011;58320;48.804;9.252;2023-09-30T14:26:53;8.52;;;3.72;;
70733;SDS011;58320;48.804;9.252;2023-09-30T14:29:20;10.07;;;4.03;;
70733;SDS011;58320;48.804;9.252;2023-09-30T14:31:46;8.10;;;3.72;;
70733;SDS011;58320;48.804;9.252;2023-09-30T14:34:12;8.80;;;3.77;;
70733;SDS011;58320;48.804;9.252;2023-09-30T14:36:40;8.17;;;3.60;;
70733;SDS011;58320;48.804;9.252;2023-09-30T14:39:05;8.85;;;3.88;;
70733;SDS011;58320;48.804;9.252;2023-09-30T14:41:31;10.85;;;3.88;;
70733;SDS011;58320;48.804;9.252;2023-09-30T14:43:57;9.20;;;3.90;;
70733;SDS011;58320;48.804;9.252;2023-09-30T14:46:23;9.15;;;3.90;;
70733;SDS011;58320;48.804;9.252;2023-09-30T14:48:49;8.43;;;3.70;;
70733;SDS011;58320;48.804;9.252;2023-09-30T14:51:15;8.47;;;3.63;;
70733;SDS011;58320;48.804;9.252;2023-09-30T14:53:42;8.13;;;3.47;;
70733;SDS011;58320;48.804;9.252;2023-09-30T14:56:17;12.57;;;4.03;;
70733;SDS011;58320;48.804;9.252;2023-09-30T14:58:43;9.90;;;3.90;;
70733;SDS011;58320;48.804;9.252;2023-09-30T15:01:10;9.20;;;4.00;;
70733;SDS011;58320;48.804;9.252;2023-09-30T15:03:37;7.45;;;3.80;;
70733;SDS011;58320;48.804;9.252;2023-09-30T15:06:04;8.63;;;3.92;;
70733;SDS011;58320;48.804;9.252;2023-09-30T15:08:31;11.55;;;3.78;;